Berwick, Iowa
Current Conditions -  °F | °C
As of 11:55 AM on Friday 21 Nov 2014 (Local Time) from KIKV Reporting Station
Clear Clear  
Wind Chill: 22°   Ceiling: Unl
Heat Index: 32°   Visibility: 10mi
Dew Point: 18°   Wind: 15mph
Humidity: 55%   Direction: 170°S
Pressure: 30.23"   Gusts: 22mph
Location:  41.66°N, 93.55°W
Report Text: KIKV 211755Z AUTO 17013G19KT 10SM CLR 00/M08 A3023 RMK AO2
Loading
Personal Weather Stations






























Interactive Weather Map New forecast layout! Learn more

10-Day Weather Forecast

Advertisements
Track Severe Weather on mobile